createdAt,value
2023-04-08T00:00:09.391Z,88.91
2023-04-08T00:01:49.771Z,89.18
2023-04-08T00:03:30.157Z,89.4
2023-04-08T00:05:10.453Z,89.2
2023-04-08T00:06:50.852Z,89.68
2023-04-08T00:08:31.222Z,90.12
2023-04-08T00:10:11.605Z,89.98
2023-04-08T00:11:52.021Z,90.27
2023-04-08T00:13:32.437Z,90.48
2023-04-08T00:15:12.833Z,91.05
2023-04-08T00:16:53.276Z,90.8
2023-04-08T00:18:33.664Z,90.21
2023-04-08T00:20:14.080Z,89.82
2023-04-08T00:21:54.385Z,89.7
2023-04-08T00:23:34.843Z,89.61
2023-04-08T00:25:15.332Z,89.71
2023-04-08T00:26:55.670Z,89.63
2023-04-08T00:28:36.077Z,89.46
2023-04-08T00:30:16.543Z,88.93
2023-04-08T00:31:56.948Z,88.35
2023-04-08T00:33:37.337Z,87.08
2023-04-08T00:35:17.695Z,86.86
2023-04-08T00:36:58.115Z,87.07
2023-04-08T00:38:38.478Z,86.81
2023-04-08T00:40:18.939Z,86.3
2023-04-08T00:41:59.248Z,86.52
2023-04-08T00:43:39.666Z,87.31
2023-04-08T00:45:20.085Z,86.73
2023-04-08T00:47:00.424Z,85.71
2023-04-08T00:48:40.849Z,86.23
2023-04-08T00:50:21.286Z,86.95
2023-04-08T00:52:01.758Z,86.17
2023-04-08T00:53:42.157Z,85.35
2023-04-08T00:55:22.531Z,85.45
2023-04-08T00:57:02.853Z,84.66
2023-04-08T00:58:43.277Z,84.93
2023-04-08T01:00:23.703Z,84.22
2023-04-08T01:02:04.236Z,83.59
2023-04-08T01:03:44.493Z,83.78
2023-04-08T01:05:24.764Z,84.45
2023-04-08T01:07:05.218Z,84.25
2023-04-08T01:08:45.623Z,84.43
2023-04-08T01:10:25.987Z,84.05
2023-04-08T01:12:06.332Z,84.38
2023-04-08T01:13:46.860Z,83.99
2023-04-08T01:15:27.195Z,84.24
2023-04-08T01:17:07.621Z,83.74
2023-04-08T01:18:48.336Z,83.56
2023-04-08T01:20:28.486Z,83.29
2023-04-08T01:22:08.862Z,83.32
2023-04-08T01:23:49.225Z,83.84
2023-04-08T01:25:29.599Z,83.89
2023-04-08T01:27:09.968Z,84.6
2023-04-08T01:28:50.531Z,84.85
2023-04-08T01:30:30.806Z,84.07
2023-04-08T01:32:11.170Z,83.58
2023-04-08T01:33:51.490Z,83.86
2023-04-08T01:35:31.922Z,83.65
2023-04-08T01:37:12.272Z,83.56
2023-04-08T01:38:52.729Z,83.57
2023-04-08T01:40:33.190Z,82.95
2023-04-08T01:42:13.611Z,83.29
2023-04-08T01:43:54.015Z,84.11
2023-04-08T01:45:34.523Z,84.68
2023-04-08T01:47:14.818Z,84.84
2023-04-08T01:48:55.162Z,84.57
2023-04-08T01:50:35.622Z,83.49
2023-04-08T01:52:16.055Z,83.38
2023-04-08T01:53:56.532Z,82.84
2023-04-08T01:55:36.898Z,82.59
2023-04-08T01:57:17.366Z,83.13
2023-04-08T01:58:57.703Z,82.78
2023-04-08T02:00:38.003Z,83.49
2023-04-08T02:02:18.517Z,82.22
2023-04-08T02:03:58.889Z,82.41
2023-04-08T02:05:39.154Z,81.92
2023-04-08T02:07:19.520Z,81.69
2023-04-08T02:08:59.932Z,81.53
2023-04-08T02:10:40.271Z,81.53
2023-04-08T02:12:20.588Z,81.3
2023-04-08T02:14:00.951Z,81.58
2023-04-08T02:15:41.336Z,81.52
2023-04-08T02:17:21.850Z,81.8
2023-04-08T02:19:02.381Z,81.74
2023-04-08T02:20:42.595Z,81.57
2023-04-08T02:22:22.896Z,81.32
2023-04-08T02:24:03.934Z,81.37
2023-04-08T02:25:43.744Z,81.27
2023-04-08T02:27:24.134Z,81.26
2023-04-08T02:29:04.496Z,81.28
2023-04-08T02:30:44.960Z,81.21
2023-04-08T02:32:25.398Z,81.25
2023-04-08T02:34:05.741Z,81.3
2023-04-08T02:35:46.117Z,81.3
2023-04-08T02:37:26.489Z,81.52
2023-04-08T02:39:06.920Z,81.76
2023-04-08T02:40:47.286Z,81.95
2023-04-08T02:42:27.657Z,82.31
2023-04-08T02:44:08.056Z,82.53
2023-04-08T02:45:48.462Z,82.84
2023-04-08T02:47:28.914Z,83.24
2023-04-08T02:49:09.286Z,83.56
2023-04-08T02:50:49.748Z,83.63
2023-04-08T02:52:29.984Z,83.95
2023-04-08T02:54:10.349Z,84.26
2023-04-08T02:55:50.753Z,84.27
2023-04-08T02:57:31.075Z,84.72
2023-04-08T02:59:11.395Z,84.91
2023-04-08T03:00:51.879Z,85.11
2023-04-08T03:02:32.338Z,85.33
2023-04-08T03:04:12.650Z,85.49
2023-04-08T03:05:53.047Z,85.61
2023-04-08T03:07:33.395Z,85.67
2023-04-08T03:09:13.819Z,86
2023-04-08T03:10:54.184Z,86.23
2023-04-08T03:12:34.631Z,86.72
2023-04-08T03:14:15.043Z,86.86
2023-04-08T03:15:55.437Z,87.32
2023-04-08T03:17:35.838Z,87.07
2023-04-08T03:19:16.172Z,87.46
2023-04-08T03:20:56.676Z,87.15
2023-04-08T03:22:37.095Z,87.49
2023-04-08T03:24:17.442Z,87.58
2023-04-08T03:25:57.917Z,87.26
2023-04-08T03:27:38.288Z,87.51
2023-04-08T03:29:18.706Z,87.57
2023-04-08T03:30:59.149Z,87.54
2023-04-08T03:32:39.524Z,87.46
2023-04-08T03:34:19.847Z,87.75
2023-04-08T03:36:00.231Z,87.64
2023-04-08T03:37:40.532Z,87.65
2023-04-08T03:39:20.914Z,87.49
2023-04-08T03:41:01.368Z,87.95
2023-04-08T03:42:41.846Z,88.39
2023-04-08T03:44:22.254Z,89.02
2023-04-08T03:46:02.738Z,89.36
2023-04-08T03:47:43.084Z,89.73
2023-04-08T03:49:23.530Z,90.23
2023-04-08T03:51:03.869Z,90.28
2023-04-08T03:52:44.225Z,90.36
2023-04-08T03:54:24.601Z,90.58
2023-04-08T03:56:05.057Z,90.93
2023-04-08T03:57:45.405Z,90.96
2023-04-08T03:59:25.799Z,91.27
2023-04-08T04:01:06.203Z,91.13
2023-04-08T04:02:46.704Z,91.07
2023-04-08T04:04:27.095Z,91.2
2023-04-08T04:06:07.390Z,91.41
2023-04-08T04:07:47.779Z,91.38
2023-04-08T04:09:28.213Z,91.49
2023-04-08T04:11:08.754Z,91.4
2023-04-08T04:12:49.108Z,91.54
2023-04-08T04:14:29.508Z,91.6
2023-04-08T04:16:09.948Z,91.67
2023-04-08T04:17:50.472Z,91.64
2023-04-08T04:19:30.750Z,91.93
2023-04-08T04:21:11.243Z,91.95
2023-04-08T04:22:51.584Z,92.01
2023-04-08T04:24:32.011Z,91.91
2023-04-08T04:26:12.384Z,91.97
2023-04-08T04:27:52.753Z,91.79
2023-04-08T04:29:33.182Z,91.82
2023-04-08T04:31:13.549Z,91.83
2023-04-08T04:32:54.028Z,92.11
2023-04-08T04:34:34.494Z,92.2
2023-04-08T04:36:14.800Z,92.44
2023-04-08T04:37:55.176Z,92.41
2023-04-08T04:39:35.505Z,92.21
2023-04-08T04:41:15.915Z,92.14
2023-04-08T04:42:56.349Z,92.18
2023-04-08T04:44:36.776Z,92.4
2023-04-08T04:46:17.368Z,92.49
2023-04-08T04:47:57.737Z,92.47
2023-04-08T04:49:38.007Z,92.54
2023-04-08T04:51:18.355Z,92.6
2023-04-08T04:52:58.777Z,92.66
2023-04-08T04:54:39.111Z,92.79
2023-04-08T04:56:19.541Z,92.85
2023-04-08T04:57:59.869Z,92.6
2023-04-08T04:59:40.256Z,92.74
2023-04-08T05:01:20.626Z,92.81
2023-04-08T05:03:01.032Z,92.91
2023-04-08T05:04:41.348Z,93.01
2023-04-08T05:06:21.671Z,92.84
2023-04-08T05:08:02.016Z,92.82
2023-04-08T05:09:42.363Z,92.9
2023-04-08T05:11:22.797Z,92.77
2023-04-08T05:13:03.182Z,92.9
2023-04-08T05:14:43.584Z,92.96
2023-04-08T05:16:24.055Z,92.85
2023-04-08T05:18:04.507Z,92.92
2023-04-08T05:19:44.858Z,92.81
2023-04-08T05:21:25.330Z,92.95
2023-04-08T05:23:05.832Z,92.85
2023-04-08T05:24:46.184Z,92.74
2023-04-08T05:26:26.659Z,92.76
2023-04-08T05:28:07.045Z,92.61
2023-04-08T05:29:47.387Z,92.72
2023-04-08T05:31:27.909Z,92.76
2023-04-08T05:33:08.239Z,92.75
2023-04-08T05:34:48.615Z,92.57
2023-04-08T05:36:29.047Z,92.49
2023-04-08T05:38:09.290Z,92.62
2023-04-08T05:39:49.688Z,92.69
2023-04-08T05:41:30.099Z,92.7
2023-04-08T05:43:10.489Z,92.8
2023-04-08T05:44:50.789Z,92.63
2023-04-08T05:46:31.155Z,92.42
2023-04-08T05:48:11.444Z,92.3
2023-04-08T05:49:51.832Z,92.19
2023-04-08T05:51:32.145Z,91.88
2023-04-08T05:53:12.582Z,91.92
2023-04-08T05:54:52.934Z,92.05
2023-04-08T05:56:33.401Z,91.95
2023-04-08T05:58:13.845Z,92.06
2023-04-08T05:59:54.265Z,92.11
2023-04-08T06:01:34.746Z,92.06
2023-04-08T06:03:15.854Z,92.22
2023-04-08T06:04:55.497Z,91.97
2023-04-08T06:06:35.840Z,91.77
2023-04-08T06:08:16.259Z,91.87
2023-04-08T06:09:56.602Z,91.6
2023-04-08T06:11:37.001Z,91.61
2023-04-08T06:13:17.357Z,91.7
2023-04-08T06:14:57.781Z,91.95
2023-04-08T06:16:38.255Z,92.07
2023-04-08T06:18:18.567Z,92.02
2023-04-08T06:19:58.937Z,92.1
2023-04-08T06:21:39.353Z,91.88
2023-04-08T06:23:19.724Z,91.76
2023-04-08T06:25:00.130Z,92.08
2023-04-08T06:26:40.488Z,92.01
2023-04-08T06:28:20.876Z,91.48
2023-04-08T06:30:01.180Z,91.28
2023-04-08T06:31:41.683Z,91.41
2023-04-08T06:33:21.982Z,91.41
2023-04-08T06:35:02.415Z,91.45
2023-04-08T06:36:42.885Z,91.71
2023-04-08T06:38:23.275Z,91.47
2023-04-08T06:40:03.744Z,91.53
2023-04-08T06:41:44.122Z,91.58
2023-04-08T06:43:24.515Z,91.53
2023-04-08T06:45:04.961Z,91.49
2023-04-08T06:46:45.383Z,91.18
2023-04-08T06:48:25.798Z,91.33
2023-04-08T06:50:06.129Z,91.25
2023-04-08T06:51:46.534Z,91.26
2023-04-08T06:53:26.909Z,91.1
2023-04-08T06:55:07.398Z,90.84
2023-04-08T06:56:47.757Z,91.03
2023-04-08T06:58:28.279Z,90.66
2023-04-08T07:00:08.640Z,90.57
2023-04-08T07:01:49.120Z,90.44
2023-04-08T07:03:29.537Z,90.5
2023-04-08T07:05:09.861Z,90.36
2023-04-08T07:06:50.325Z,90.39
2023-04-08T07:08:30.792Z,90.95
2023-04-08T07:10:11.413Z,90.97
2023-04-08T07:11:51.593Z,90.78
2023-04-08T07:13:32.080Z,90.92
2023-04-08T07:15:12.562Z,90.86
2023-04-08T07:16:53.136Z,90.75
2023-04-08T07:18:33.415Z,91.05
2023-04-08T07:20:13.865Z,90.48
2023-04-08T07:21:54.236Z,90.49
2023-04-08T07:23:34.568Z,90.57
2023-04-08T07:25:15.008Z,90.88
2023-04-08T07:26:55.244Z,90.46
2023-04-08T07:28:35.642Z,90.51
2023-04-08T07:30:16.061Z,90.56
2023-04-08T07:31:56.556Z,90.44
2023-04-08T07:33:36.938Z,90.47
2023-04-08T07:35:17.532Z,90.63
2023-04-08T07:36:57.792Z,90.85
2023-04-08T07:38:38.206Z,90.63
2023-04-08T07:40:18.623Z,90.14
2023-04-08T07:41:59.052Z,90.24
2023-04-08T07:43:39.452Z,90.22
2023-04-08T07:45:19.918Z,89.96
2023-04-08T07:47:00.343Z,90.03
2023-04-08T07:48:40.717Z,90.08
2023-04-08T07:50:21.075Z,89.95
2023-04-08T07:52:01.418Z,89.59
2023-04-08T07:53:41.859Z,89.91
2023-04-08T07:55:22.270Z,89.81
2023-04-08T07:57:02.675Z,89.95
2023-04-08T07:58:43.038Z,90.09
2023-04-08T08:00:23.484Z,89.65
2023-04-08T08:02:03.865Z,89.09
2023-04-08T08:03:44.462Z,89.3
2023-04-08T08:05:24.720Z,89.31
2023-04-08T08:07:05.133Z,89.34
2023-04-08T08:08:45.538Z,89.2
2023-04-08T08:10:25.890Z,89.38
2023-04-08T08:12:06.340Z,89.15
2023-04-08T08:13:46.682Z,89.12
2023-04-08T08:15:27.038Z,89.16
2023-04-08T08:17:07.370Z,88.96
2023-04-08T08:18:47.750Z,89.21
2023-04-08T08:20:28.070Z,89.13
2023-04-08T08:22:08.443Z,89.49
2023-04-08T08:23:49.054Z,89.57
2023-04-08T08:25:29.303Z,88.89
2023-04-08T08:27:09.792Z,89.26
2023-04-08T08:28:50.137Z,89.54
2023-04-08T08:30:31.037Z,89.57
2023-04-08T08:32:11.056Z,89.2
2023-04-08T08:33:51.510Z,89.55
2023-04-08T08:35:31.729Z,89.72
2023-04-08T08:37:12.109Z,89.48
2023-04-08T08:38:52.427Z,89.37
2023-04-08T08:40:32.885Z,88.97
2023-04-08T08:42:13.322Z,89.27
2023-04-08T08:43:53.694Z,89.21
2023-04-08T08:45:34.104Z,89.54
2023-04-08T08:47:14.516Z,89.59
2023-04-08T08:48:54.923Z,89.57
2023-04-08T08:50:35.258Z,88.89
2023-04-08T08:52:15.648Z,88.89
2023-04-08T08:53:56.066Z,88.74
2023-04-08T08:56:02.113Z,88.7
2023-04-08T08:57:16.842Z,89.05
2023-04-08T08:58:57.231Z,88.8
2023-04-08T09:00:37.712Z,88.57
2023-04-08T09:02:18.165Z,88.6
2023-04-08T09:03:58.593Z,88.12
2023-04-08T09:05:39.035Z,87.56
2023-04-08T09:07:19.268Z,87.68
2023-04-08T09:08:59.647Z,87.33
2023-04-08T09:10:40.050Z,87.51
2023-04-08T09:12:20.462Z,87.01
2023-04-08T09:14:00.866Z,87.18
2023-04-08T09:15:41.276Z,87.13
2023-04-08T09:17:21.611Z,87.04
2023-04-08T09:19:02.062Z,86.72
2023-04-08T09:20:42.393Z,86.78
2023-04-08T09:22:22.844Z,86.92
2023-04-08T09:24:03.339Z,86.49
2023-04-08T09:25:43.800Z,86.71
2023-04-08T09:27:24.147Z,86.66
2023-04-08T09:29:18.201Z,86.88
2023-04-08T09:30:44.876Z,86.2
2023-04-08T09:32:25.262Z,86.32
2023-04-08T09:34:05.635Z,86.54
2023-04-08T09:35:46.091Z,86.27
2023-04-08T09:37:26.400Z,86.3
2023-04-08T09:39:06.816Z,86.45
2023-04-08T09:40:47.170Z,86.59
2023-04-08T09:42:27.593Z,85.76
2023-04-08T09:44:08.072Z,86.36
2023-04-08T09:45:48.464Z,86.04
2023-04-08T09:47:28.902Z,86.46
2023-04-08T09:49:09.265Z,86.39
2023-04-08T09:50:49.731Z,86.25
2023-04-08T09:52:30.109Z,86.51
2023-04-08T09:54:10.465Z,86.24
2023-04-08T09:55:50.937Z,86.43
2023-04-08T09:57:31.334Z,86.71
2023-04-08T09:59:11.684Z,86.74
2023-04-08T10:00:52.135Z,86.48
2023-04-08T10:02:32.562Z,86.81
2023-04-08T10:04:13.011Z,86.22
2023-04-08T10:05:53.318Z,85.9
2023-04-08T10:07:33.651Z,85.64
2023-04-08T10:09:14.031Z,85.21
2023-04-08T10:10:54.456Z,85.09
2023-04-08T10:12:34.794Z,84.9
2023-04-08T10:14:15.151Z,84.53
2023-04-08T10:15:55.559Z,84.33
2023-04-08T10:17:36.119Z,84.06
2023-04-08T10:19:16.456Z,83.96
2023-04-08T10:20:56.812Z,83.94
2023-04-08T10:22:37.226Z,83.39
2023-04-08T10:24:17.660Z,83.41
2023-04-08T10:25:58.012Z,82.86
2023-04-08T10:27:38.434Z,82.96
2023-04-08T10:29:18.858Z,83.27
2023-04-08T10:30:59.371Z,83.4
2023-04-08T10:32:39.844Z,82.9
2023-04-08T10:34:20.121Z,82.79
2023-04-08T10:36:00.533Z,82.85
2023-04-08T10:37:40.849Z,82.63
2023-04-08T10:39:21.297Z,82.44
2023-04-08T10:41:01.800Z,82.75
2023-04-08T10:42:42.170Z,82.65
2023-04-08T10:44:22.518Z,82.78
2023-04-08T10:46:03.010Z,82.98
2023-04-08T10:47:43.372Z,83.19
2023-04-08T10:49:23.728Z,83.22
2023-04-08T10:51:04.134Z,83.43
2023-04-08T10:52:44.440Z,84.12
2023-04-08T10:54:24.826Z,84.4
2023-04-08T10:56:05.200Z,84.28
2023-04-08T10:57:45.617Z,84.69
2023-04-08T10:59:25.988Z,84.79
2023-04-08T11:01:06.632Z,84.54
2023-04-08T11:02:46.900Z,84.91
2023-04-08T11:04:27.387Z,84.98
2023-04-08T11:06:07.658Z,85.42
2023-04-08T11:07:47.992Z,85.2
2023-04-08T11:09:28.377Z,85.58
2023-04-08T11:11:08.872Z,85.64
2023-04-08T11:12:49.301Z,85.64
2023-04-08T11:14:29.725Z,85.25
2023-04-08T11:17:50.529Z,85.72
2023-04-08T11:19:30.931Z,86.1
2023-04-08T11:21:11.301Z,86.09
2023-04-08T11:22:51.738Z,86.27
2023-04-08T11:24:32.050Z,85.58
2023-04-08T11:26:12.459Z,86.15
2023-04-08T11:27:52.889Z,85.92
2023-04-08T11:29:33.467Z,85.68
2023-04-08T11:31:13.786Z,85.68
2023-04-08T11:32:54.161Z,85.78
2023-04-08T11:34:34.566Z,85.6
2023-04-08T11:36:15.009Z,85.2
2023-04-08T11:37:55.302Z,85.28
2023-04-08T11:39:35.691Z,85.6
2023-04-08T11:41:16.196Z,85.47
2023-04-08T11:42:56.613Z,84.78
2023-04-08T11:44:36.992Z,85.02
2023-04-08T11:46:17.425Z,84.87
2023-04-08T11:47:57.870Z,85.39
2023-04-08T11:49:38.163Z,84.98
2023-04-08T11:51:18.546Z,84.64
2023-04-08T11:52:59.010Z,84.83
2023-04-08T11:54:39.429Z,84.64
2023-04-08T11:56:19.947Z,84.59
2023-04-08T11:58:00.268Z,84.23
2023-04-08T11:59:40.580Z,84.35
2023-04-08T12:01:20.998Z,84.1
2023-04-08T12:03:01.430Z,83.97
2023-04-08T12:04:41.859Z,84.23
2023-04-08T12:06:22.203Z,83.54
2023-04-08T12:08:02.586Z,83.41
2023-04-08T12:09:43.012Z,82.83
2023-04-08T12:11:23.470Z,82.62
2023-04-08T12:13:03.877Z,82.34
2023-04-08T12:14:44.226Z,82.33
2023-04-08T12:16:24.718Z,82.23
2023-04-08T12:18:05.239Z,81.47
2023-04-08T12:19:45.579Z,82.16
2023-04-08T12:21:26.074Z,81.46
2023-04-08T12:23:06.537Z,81.46
2023-04-08T12:24:46.834Z,81.49
2023-04-08T12:26:27.208Z,81.03
2023-04-08T12:28:07.570Z,80.65
2023-04-08T12:29:47.979Z,81.13
2023-04-08T12:31:28.474Z,80.38
2023-04-08T12:33:08.772Z,81.54
2023-04-08T12:34:49.225Z,80.57
2023-04-08T12:36:29.610Z,79.66
2023-04-08T12:38:10.004Z,80.76
2023-04-08T12:39:55.204Z,80.32
2023-04-08T12:41:35.382Z,80.14
2023-04-08T12:43:15.887Z,80.4
2023-04-08T12:44:06.631Z,0
2023-04-08T12:45:47.325Z,80.29
2023-04-08T12:47:27.884Z,80.75
2023-04-08T12:49:08.512Z,81.04
2023-04-08T12:50:48.708Z,80.79
2023-04-08T12:52:29.182Z,80.79
2023-04-08T12:54:09.634Z,81.05
2023-04-08T12:55:49.994Z,81.13
2023-04-08T12:57:30.348Z,80.67
2023-04-08T12:59:10.769Z,80.12
2023-04-08T13:00:51.300Z,79.69
2023-04-08T13:02:31.718Z,79.88
2023-04-08T13:04:12.112Z,80.23
2023-04-08T13:05:52.367Z,79.28
2023-04-08T13:07:32.787Z,79.63
2023-04-08T13:09:13.251Z,79.34
2023-04-08T13:10:53.728Z,78.8
2023-04-08T13:12:34.084Z,79.29
2023-04-08T13:14:14.466Z,79.53
2023-04-08T13:15:54.772Z,79.27
2023-04-08T13:17:35.207Z,79.29
2023-04-08T13:19:15.511Z,78.23
2023-04-08T13:20:55.910Z,79.13
2023-04-08T13:22:36.293Z,78.15
2023-04-08T13:24:16.813Z,78.28
2023-04-08T13:25:57.122Z,78.76
2023-04-08T13:27:37.537Z,78.1
2023-04-08T13:29:17.988Z,77.78
2023-04-08T13:30:58.321Z,77.29
2023-04-08T13:32:38.804Z,77.84
2023-04-08T13:34:19.219Z,77.94
2023-04-08T13:35:59.631Z,77.77
2023-04-08T13:37:39.914Z,77.79
2023-04-08T13:39:20.359Z,78.02
2023-04-08T13:41:00.752Z,77.99
2023-04-08T13:42:41.101Z,78.15
2023-04-08T13:44:21.623Z,77.6
2023-04-08T13:46:02.017Z,78.01
2023-04-08T13:47:42.375Z,77.99
2023-04-08T13:49:22.757Z,78.05
2023-04-08T13:51:03.073Z,78.52
2023-04-08T13:52:43.578Z,78.95
2023-04-08T13:54:23.863Z,78.63
2023-04-08T13:56:04.299Z,78.84
2023-04-08T13:57:44.741Z,78.5
2023-04-08T13:59:25.076Z,78.26
2023-04-08T14:01:05.501Z,78.49
2023-04-08T14:02:45.902Z,79.01
2023-04-08T14:04:26.103Z,78.92
2023-04-08T14:06:06.536Z,78.48
2023-04-08T14:07:46.893Z,78.48
2023-04-08T14:09:27.239Z,78.69
2023-04-08T14:11:07.626Z,78.65
2023-04-08T14:12:48.089Z,78.05
2023-04-08T14:14:28.532Z,78.58
2023-04-08T14:16:08.892Z,78.62
2023-04-08T14:17:49.384Z,78.1
2023-04-08T14:19:29.782Z,78.75
2023-04-08T14:21:10.181Z,79.13
2023-04-08T14:22:50.531Z,79.04
2023-04-08T14:24:30.999Z,79.01
2023-04-08T14:26:11.432Z,78.23
2023-04-08T14:27:58.544Z,78.76
2023-04-08T14:29:32.265Z,79.12
2023-04-08T14:31:12.781Z,79.09
2023-04-08T14:32:53.162Z,78.7
2023-04-08T14:34:33.434Z,79
2023-04-08T14:36:13.756Z,79.32
2023-04-08T14:37:54.166Z,80.12
2023-04-08T14:39:34.637Z,79.92
2023-04-08T14:41:15.032Z,80.39
2023-04-08T14:42:55.427Z,79.83
2023-04-08T14:44:35.920Z,80.2
2023-04-08T14:46:16.387Z,80.21
2023-04-08T14:47:56.883Z,80.57
2023-04-08T14:49:37.210Z,80.67
2023-04-08T14:51:17.577Z,80.61
2023-04-08T14:52:58.044Z,81.13
2023-04-08T14:54:38.334Z,81.15
2023-04-08T14:56:18.741Z,81.13
2023-04-08T14:58:00.944Z,80.89
2023-04-08T14:59:39.413Z,81.49
2023-04-08T15:01:19.769Z,81.33
2023-04-08T15:03:00.308Z,81.12
2023-04-08T15:04:40.727Z,81.32
2023-04-08T15:06:21.066Z,81.13
2023-04-08T15:08:01.432Z,81.52
2023-04-08T15:09:41.737Z,81.13
2023-04-08T15:11:22.118Z,81.08
2023-04-08T15:13:02.559Z,81.25
2023-04-08T15:14:42.986Z,81.59
2023-04-08T15:16:23.388Z,81.57
2023-04-08T15:18:03.831Z,81.9
2023-04-08T15:19:44.173Z,81.79
2023-04-08T15:21:24.607Z,81.85
2023-04-08T15:23:05.021Z,82.21
2023-04-08T15:24:47.482Z,81.99
2023-04-08T15:26:25.876Z,82.27
2023-04-08T15:28:06.274Z,82.9
2023-04-08T15:29:46.746Z,82.49
2023-04-08T15:31:27.222Z,82.32
2023-04-08T15:33:07.672Z,82.5
2023-04-08T15:34:48.009Z,82.35
2023-04-08T15:36:28.447Z,82.83
2023-04-08T15:38:08.811Z,82.49
2023-04-08T15:39:49.155Z,82.88
2023-04-08T15:41:29.664Z,82.59
2023-04-08T15:43:10.138Z,83.06
2023-04-08T15:44:50.512Z,82.53
2023-04-08T15:46:30.951Z,82.82
2023-04-08T15:48:11.327Z,82.6
2023-04-08T15:49:51.667Z,82.77
2023-04-08T15:51:32.120Z,83.07
2023-04-08T15:53:12.510Z,82.95
2023-04-08T15:54:52.894Z,82.28
2023-04-08T15:56:33.351Z,82.73
2023-04-08T15:58:13.886Z,82.53
2023-04-08T15:59:54.317Z,82.56
2023-04-08T16:01:34.791Z,82.7
2023-04-08T16:03:15.469Z,82.81
2023-04-08T16:04:55.512Z,82.94
2023-04-08T16:06:35.927Z,83.08
2023-04-08T16:08:16.316Z,82.99
2023-04-08T16:09:56.758Z,83.2
2023-04-08T16:11:37.135Z,82.85
2023-04-08T16:13:17.431Z,82.81
2023-04-08T16:14:57.738Z,82.92
2023-04-08T16:16:38.239Z,82.45
2023-04-08T16:18:18.258Z,82.45
2023-04-08T16:19:58.746Z,82.45
2023-04-08T16:21:39.081Z,82.45
2023-04-08T16:23:22.854Z,82.45
2023-04-08T16:25:03.253Z,82.71
2023-04-08T16:26:43.648Z,82.71
2023-04-08T16:28:23.958Z,82.71
2023-04-08T16:30:04.348Z,82.71
2023-04-08T16:31:44.557Z,82.71
2023-04-08T16:33:25.026Z,81.15
2023-04-08T16:35:05.419Z,81.4
2023-04-08T16:36:45.770Z,81.75
2023-04-08T16:38:26.045Z,81.68
2023-04-08T16:40:06.289Z,81.68
2023-04-08T16:41:46.607Z,81.68
2023-04-08T16:43:26.965Z,81.9
2023-04-08T16:45:07.428Z,81.86
2023-04-08T16:46:47.806Z,81.45
2023-04-08T16:48:28.250Z,81.7
2023-04-08T16:50:08.579Z,81.83
2023-04-08T16:51:49.006Z,81.79
2023-04-08T16:53:29.387Z,81.89
2023-04-08T16:55:10.015Z,82.05
2023-04-08T16:56:50.377Z,82.05
2023-04-08T16:58:30.667Z,82.05
2023-04-08T17:00:10.986Z,82.05
2023-04-08T17:01:51.312Z,82.03
2023-04-08T17:03:31.655Z,82.03
2023-04-08T17:05:11.947Z,82.07
2023-04-08T17:06:52.259Z,81.89
2023-04-08T17:08:32.571Z,82.16
2023-04-08T17:10:12.849Z,82.15
2023-04-08T17:11:53.138Z,82.16
2023-04-08T17:13:33.382Z,81.98
2023-04-08T17:15:13.717Z,81.98
2023-04-08T17:16:54.108Z,81.98
2023-04-08T17:18:34.365Z,82.28
2023-04-08T17:20:14.845Z,82.21
2023-04-08T17:21:54.990Z,82.21
2023-04-08T17:23:35.286Z,82.21
2023-04-08T17:25:15.624Z,82.58
2023-04-08T17:26:55.895Z,82.58
2023-04-08T17:28:36.194Z,82.58
2023-04-08T17:30:16.518Z,82.58
2023-04-08T17:31:56.786Z,82.58
2023-04-08T17:33:36.972Z,82.58
2023-04-08T17:35:17.252Z,82.58
2023-04-08T17:36:57.482Z,82.58
2023-04-08T17:38:37.762Z,82.58
2023-04-08T17:40:18.054Z,82.45
2023-04-08T17:41:58.279Z,82.45
2023-04-08T17:43:38.573Z,82.45
2023-04-08T17:45:18.865Z,82.45
2023-04-08T17:46:59.148Z,82.45
2023-04-08T17:48:39.378Z,82.45
2023-04-08T17:50:19.762Z,82.45
2023-04-08T17:52:00.140Z,82.45
2023-04-08T17:53:40.545Z,82.45
2023-04-08T17:55:20.896Z,82.45
2023-04-08T17:57:01.192Z,82.45
2023-04-08T17:58:41.518Z,82.45
2023-04-08T18:00:21.970Z,83.54
2023-04-08T18:02:02.335Z,83.54
2023-04-08T18:03:42.610Z,83.54
2023-04-08T18:05:22.845Z,83.54
2023-04-08T18:07:03.119Z,83.54
2023-04-08T18:08:43.450Z,83.54
2023-04-08T18:10:23.773Z,83.54
2023-04-08T18:12:04.040Z,83.54
2023-04-08T18:13:44.351Z,83.54
2023-04-08T18:15:24.662Z,83.54
2023-04-08T18:17:04.946Z,83.54
2023-04-08T18:18:45.152Z,83.54
2023-04-08T18:20:25.370Z,83.54
2023-04-08T18:22:08.705Z,83.54
2023-04-08T18:23:45.931Z,83.54
2023-04-08T18:25:26.251Z,83.54
2023-04-08T18:27:06.608Z,83.54
2023-04-08T18:28:46.886Z,83.54
2023-04-08T18:30:27.243Z,83.54
2023-04-08T18:32:07.445Z,83.54
2023-04-08T18:33:47.751Z,83.54
2023-04-08T18:35:28.008Z,83.54
2023-04-08T18:37:11.305Z,83.54
2023-04-08T18:38:48.583Z,83.54
2023-04-08T18:40:28.793Z,83.54
2023-04-08T18:42:09.022Z,83.54
2023-04-08T18:43:49.476Z,83.54
2023-04-08T18:45:29.594Z,83.54
2023-04-08T18:47:09.897Z,87.87
2023-04-08T18:48:50.207Z,87.86
2023-04-08T18:50:30.539Z,87.86
2023-04-08T18:52:10.879Z,87.86
2023-04-08T18:53:51.315Z,87.86
2023-04-08T18:55:31.341Z,87.86
2023-04-08T18:57:11.567Z,87.86
2023-04-08T18:58:51.873Z,87.86
2023-04-08T19:00:32.125Z,87.73
2023-04-08T19:02:12.513Z,87.73
2023-04-08T19:03:53.179Z,87.78
2023-04-08T19:05:33.043Z,88.08
2023-04-08T19:07:13.449Z,87.86
2023-04-08T19:08:53.780Z,87.76
2023-04-08T19:10:34.298Z,87.65
2023-04-08T19:12:14.615Z,87.63
2023-04-08T19:13:55.008Z,87.62
2023-04-08T19:15:38.615Z,87.66
2023-04-08T19:17:15.864Z,87.68
2023-04-08T19:18:56.128Z,87.68
2023-04-08T19:20:36.368Z,87.68
2023-04-08T19:22:16.752Z,87.68
2023-04-08T19:23:56.945Z,87.68
2023-04-08T19:25:37.171Z,87.68
2023-04-08T19:27:17.464Z,87.68
2023-04-08T19:28:57.750Z,87.68
2023-04-08T19:30:38.063Z,87.95
2023-04-08T19:32:18.338Z,87.87
2023-04-08T19:33:58.684Z,87.95
2023-04-08T19:35:39.018Z,87.95
2023-04-08T19:37:19.225Z,87.95
2023-04-08T19:38:59.499Z,87.95
2023-04-08T19:40:39.855Z,87.95
2023-04-08T19:42:20.155Z,87.95
2023-04-08T19:44:00.563Z,87.95
2023-04-08T19:45:40.830Z,87.95
2023-04-08T19:47:21.092Z,87.95
2023-04-08T19:49:01.324Z,87.95
2023-04-08T19:50:41.615Z,87.95
2023-04-08T19:52:24.902Z,87.95
2023-04-08T19:54:02.153Z,87.95
2023-04-08T19:55:42.473Z,87.95
2023-04-08T19:57:22.695Z,87.95
2023-04-08T19:59:02.984Z,89.13
2023-04-08T20:00:43.350Z,89.15
2023-04-08T20:02:23.719Z,89.15
2023-04-08T20:04:03.855Z,89.15
2023-04-08T20:05:44.146Z,89.99
2023-04-08T20:07:24.498Z,89.96
2023-04-08T20:09:04.801Z,90.11
2023-04-08T20:10:45.061Z,90.28
2023-04-08T20:12:25.327Z,90.28
2023-04-08T20:14:05.684Z,90.38
2023-04-08T20:15:45.914Z,90.4
2023-04-08T20:17:26.210Z,90.75
2023-04-08T20:19:06.559Z,90.83
2023-04-08T20:20:46.956Z,91.09
2023-04-08T20:22:27.340Z,91.11
2023-04-08T20:24:07.723Z,91.16
2023-04-08T20:25:48.129Z,91.11
2023-04-08T20:27:28.548Z,91.26
2023-04-08T20:29:08.813Z,91.67
2023-04-08T20:30:49.390Z,92.32
2023-04-08T20:32:29.655Z,92.32
2023-04-08T20:34:09.929Z,92.13
2023-04-08T20:35:53.368Z,92.04
2023-04-08T20:37:30.572Z,92.24
2023-04-08T20:39:10.946Z,92.34
2023-04-08T20:40:51.108Z,93.24
2023-04-08T20:42:31.380Z,93.65
2023-04-08T20:44:11.767Z,93.82
2023-04-08T20:45:52.098Z,93.88
2023-04-08T20:47:32.424Z,93.41
2023-04-08T20:49:12.863Z,93.11
2023-04-08T20:50:53.278Z,93.27
2023-04-08T20:52:33.715Z,93.44
2023-04-08T20:54:14.148Z,93.43
2023-04-08T20:55:54.508Z,93.45
2023-04-08T20:57:34.869Z,93.3
2023-04-08T20:59:15.329Z,93.21
2023-04-08T21:00:55.796Z,93.51
2023-04-08T21:02:36.328Z,93.7
2023-04-08T21:04:16.532Z,94.19
2023-04-08T21:05:56.986Z,94.71
2023-04-08T21:07:37.412Z,95.21
2023-04-08T21:09:17.739Z,95.36
2023-04-08T21:10:58.224Z,95.16
2023-04-08T21:12:38.538Z,95.26
2023-04-08T21:14:18.916Z,95.29
2023-04-08T21:15:59.423Z,95.46
2023-04-08T21:17:39.705Z,95.62
2023-04-08T21:19:20.179Z,95.73
2023-04-08T21:21:00.570Z,96.02
2023-04-08T21:22:40.952Z,96.24
2023-04-08T21:24:21.310Z,96
2023-04-08T21:26:03.498Z,95.86
2023-04-08T21:27:42.171Z,95.89
2023-04-08T21:29:22.668Z,96.03
2023-04-08T21:31:03.056Z,96.12
2023-04-08T21:32:43.410Z,96.27
2023-04-08T21:34:23.870Z,96.42
2023-04-08T21:36:04.221Z,96.52
2023-04-08T21:37:44.657Z,96.52